sensor_id;sensor_type;location;lat;lon;timestamp;pressure;altitude;pressure_sealevel;temperature
73761;BMP280;69240;43.530;-5.646;2023-07-31T00:01:59;101956.75;;;19.90
73761;BMP280;69240;43.530;-5.646;2023-07-31T00:04:24;101951.81;;;19.89
73761;BMP280;69240;43.530;-5.646;2023-07-31T00:06:50;101956.25;;;19.86
73761;BMP280;69240;43.530;-5.646;2023-07-31T00:09:15;101949.59;;;19.87
73761;BMP280;69240;43.530;-5.646;2023-07-31T00:11:41;101951.78;;;19.83
73761;BMP280;69240;43.530;-5.646;2023-07-31T00:14:06;101944.63;;;19.80
73761;BMP280;69240;43.530;-5.646;2023-07-31T00:16:32;101941.66;;;19.78
73761;BMP280;69240;43.530;-5.646;2023-07-31T00:18:57;101941.41;;;19.76
73761;BMP280;69240;43.530;-5.646;2023-07-31T00:21:23;101948.06;;;19.75
73761;BMP280;69240;43.530;-5.646;2023-07-31T00:23:48;101942.13;;;19.71
73761;BMP280;69240;43.530;-5.646;2023-07-31T00:26:14;101941.91;;;19.69
73761;BMP280;69240;43.530;-5.646;2023-07-31T00:28:39;101939.41;;;19.66
73761;BMP280;69240;43.530;-5.646;2023-07-31T00:31:05;101933.72;;;19.64
73761;BMP280;69240;43.530;-5.646;2023-07-31T00:33:31;101935.94;;;19.65
73761;BMP280;69240;43.530;-5.646;2023-07-31T00:35:57;101933.22;;;19.65
73761;BMP280;69240;43.530;-5.646;2023-07-31T00:38:22;101930.50;;;19.65
73761;BMP280;69240;43.530;-5.646;2023-07-31T00:40:47;101932.50;;;19.65
73761;BMP280;69240;43.530;-5.646;2023-07-31T00:43:13;101926.03;;;19.62
73761;BMP280;69240;43.530;-5.646;2023-07-31T00:45:41;101924.59;;;19.61
73761;BMP280;69240;43.530;-5.646;2023-07-31T00:48:07;101916.16;;;19.59
73761;BMP280;69240;43.530;-5.646;2023-07-31T00:50:34;101921.59;;;19.59
73761;BMP280;69240;43.530;-5.646;2023-07-31T00:53:00;101919.59;;;19.54
73761;BMP280;69240;43.530;-5.646;2023-07-31T00:55:25;101913.19;;;19.52
73761;BMP280;69240;43.530;-5.646;2023-07-31T00:57:52;101905.53;;;19.50
73761;BMP280;69240;43.530;-5.646;2023-07-31T01:00:18;101906.50;;;19.47
73761;BMP280;69240;43.530;-5.646;2023-07-31T01:02:45;101900.81;;;19.45
73761;BMP280;69240;43.530;-5.646;2023-07-31T01:05:11;101896.38;;;19.42
73761;BMP280;69240;43.530;-5.646;2023-07-31T01:10:16;101897.34;;;19.39
73761;BMP280;69240;43.530;-5.646;2023-07-31T01:12:45;101892.88;;;19.36
73761;BMP280;69240;43.530;-5.646;2023-07-31T01:15:12;101895.34;;;19.34
73761;BMP280;69240;43.530;-5.646;2023-07-31T01:17:40;101894.59;;;19.34
73761;BMP280;69240;43.530;-5.646;2023-07-31T01:20:11;101889.44;;;19.30
73761;BMP280;69240;43.530;-5.646;2023-07-31T01:25:41;101887.66;;;19.27
73761;BMP280;69240;43.530;-5.646;2023-07-31T01:28:13;101882.00;;;19.25
73761;BMP280;69240;43.530;-5.646;2023-07-31T01:30:44;101895.28;;;19.23
73761;BMP280;69240;43.530;-5.646;2023-07-31T01:33:14;101881.47;;;19.21
73761;BMP280;69240;43.530;-5.646;2023-07-31T01:35:44;101886.41;;;19.17
73761;BMP280;69240;43.530;-5.646;2023-07-31T01:38:10;101880.97;;;19.17
73761;BMP280;69240;43.530;-5.646;2023-07-31T01:40:35;101893.31;;;19.18
73761;BMP280;69240;43.530;-5.646;2023-07-31T01:43:01;101889.34;;;19.19
73761;BMP280;69240;43.530;-5.646;2023-07-31T01:45:26;101893.31;;;19.18
73761;BMP280;69240;43.530;-5.646;2023-07-31T01:47:52;101883.41;;;19.15
73761;BMP280;69240;43.530;-5.646;2023-07-31T01:50:17;101891.53;;;19.15
73761;BMP280;69240;43.530;-5.646;2023-07-31T01:52:43;101890.34;;;19.16
73761;BMP280;69240;43.530;-5.646;2023-07-31T01:55:08;101885.88;;;19.13
73761;BMP280;69240;43.530;-5.646;2023-07-31T01:57:34;101887.38;;;19.14
73761;BMP280;69240;43.530;-5.646;2023-07-31T01:59:59;101890.81;;;19.09
73761;BMP280;69240;43.530;-5.646;2023-07-31T02:02:25;101886.31;;;19.06
73761;BMP280;69240;43.530;-5.646;2023-07-31T02:04:50;101888.03;;;19.04
73761;BMP280;69240;43.530;-5.646;2023-07-31T02:07:16;101883.81;;;18.97
73761;BMP280;69240;43.530;-5.646;2023-07-31T02:09:41;101877.63;;;18.91
73761;BMP280;69240;43.530;-5.646;2023-07-31T02:12:07;101876.38;;;18.92
73761;BMP280;69240;43.530;-5.646;2023-07-31T02:14:36;101880.31;;;18.91
73761;BMP280;69240;43.530;-5.646;2023-07-31T02:17:01;101881.28;;;18.88
73761;BMP280;69240;43.530;-5.646;2023-07-31T02:19:27;101874.66;;;18.89
73761;BMP280;69240;43.530;-5.646;2023-07-31T02:21:52;101871.94;;;18.89
73761;BMP280;69240;43.530;-5.646;2023-07-31T02:24:18;101876.59;;;18.89
73761;BMP280;69240;43.530;-5.646;2023-07-31T02:26:43;101869.19;;;18.84
73761;BMP280;69240;43.530;-5.646;2023-07-31T02:29:09;101869.94;;;18.84
73761;BMP280;69240;43.530;-5.646;2023-07-31T02:31:34;101867.72;;;18.83
73761;BMP280;69240;43.530;-5.646;2023-07-31T02:34:00;101873.34;;;18.79
73761;BMP280;69240;43.530;-5.646;2023-07-31T02:36:25;101876.97;;;18.71
73761;BMP280;69240;43.530;-5.646;2023-07-31T02:38:51;101882.19;;;18.74
73761;BMP280;69240;43.530;-5.646;2023-07-31T02:41:16;101885.44;;;18.78
73761;BMP280;69240;43.530;-5.646;2023-07-31T02:43:42;101874.31;;;18.76
73761;BMP280;69240;43.530;-5.646;2023-07-31T02:46:07;101882.75;;;18.78
73761;BMP280;69240;43.530;-5.646;2023-07-31T02:48:33;101871.34;;;18.74
73761;BMP280;69240;43.530;-5.646;2023-07-31T02:50:58;101868.41;;;18.72
73761;BMP280;69240;43.530;-5.646;2023-07-31T02:53:24;101870.81;;;18.70
73761;BMP280;69240;43.530;-5.646;2023-07-31T02:55:49;101864.88;;;18.66
73761;BMP280;69240;43.530;-5.646;2023-07-31T02:58:15;101852.56;;;18.65
73761;BMP280;69240;43.530;-5.646;2023-07-31T03:00:44;101866.81;;;18.60
73761;BMP280;69240;43.530;-5.646;2023-07-31T03:03:10;101861.59;;;18.57
73761;BMP280;69240;43.530;-5.646;2023-07-31T03:05:35;101861.84;;;18.53
73761;BMP280;69240;43.530;-5.646;2023-07-31T03:08:01;101858.88;;;18.51
73761;BMP280;69240;43.530;-5.646;2023-07-31T03:10:27;101867.78;;;18.52
73761;BMP280;69240;43.530;-5.646;2023-07-31T03:12:52;101867.25;;;18.53
73761;BMP280;69240;43.530;-5.646;2023-07-31T03:15:18;101872.44;;;18.57
73761;BMP280;69240;43.530;-5.646;2023-07-31T03:17:43;101862.56;;;18.54
73761;BMP280;69240;43.530;-5.646;2023-07-31T03:20:09;101864.81;;;18.55
73761;BMP280;69240;43.530;-5.646;2023-07-31T03:22:35;101863.31;;;18.54
73761;BMP280;69240;43.530;-5.646;2023-07-31T03:25:02;101869.22;;;18.53
73761;BMP280;69240;43.530;-5.646;2023-07-31T03:27:27;101869.72;;;18.51
73761;BMP280;69240;43.530;-5.646;2023-07-31T03:29:53;101868.25;;;18.50
73761;BMP280;69240;43.530;-5.646;2023-07-31T03:32:18;101862.28;;;18.46
73761;BMP280;69240;43.530;-5.646;2023-07-31T03:34:44;101854.84;;;18.41
73761;BMP280;69240;43.530;-5.646;2023-07-31T03:37:09;101854.13;;;18.41
73761;BMP280;69240;43.530;-5.646;2023-07-31T03:39:35;101846.69;;;18.36
73761;BMP280;69240;43.530;-5.646;2023-07-31T03:42:00;101849.88;;;18.34
73761;BMP280;69240;43.530;-5.646;2023-07-31T03:44:26;101854.53;;;18.28
73761;BMP280;69240;43.530;-5.646;2023-07-31T03:46:51;101862.88;;;18.30
73761;BMP280;69240;43.530;-5.646;2023-07-31T03:49:17;101861.69;;;18.31
73761;BMP280;69240;43.530;-5.646;2023-07-31T03:51:43;101854.53;;;18.34
73761;BMP280;69240;43.530;-5.646;2023-07-31T03:54:08;101856.75;;;18.35
73761;BMP280;69240;43.530;-5.646;2023-07-31T03:56:34;101860.97;;;18.36
73761;BMP280;69240;43.530;-5.646;2023-07-31T03:58:59;101858.25;;;18.36
73761;BMP280;69240;43.530;-5.646;2023-07-31T04:01:26;101858.53;;;18.38
73761;BMP280;69240;43.530;-5.646;2023-07-31T04:03:51;101850.41;;;18.38
73761;BMP280;69240;43.530;-5.646;2023-07-31T04:06:17;101852.31;;;18.32
73761;BMP280;69240;43.530;-5.646;2023-07-31T04:08:44;101852.56;;;18.34
73761;BMP280;69240;43.530;-5.646;2023-07-31T04:11:10;101857.47;;;18.30
73761;BMP280;69240;43.530;-5.646;2023-07-31T04:13:37;101854.53;;;18.28
73761;BMP280;69240;43.530;-5.646;2023-07-31T04:16:02;101852.00;;;18.25
73761;BMP280;69240;43.530;-5.646;2023-07-31T04:18:28;101855.22;;;18.23
73761;BMP280;69240;43.530;-5.646;2023-07-31T04:20:56;101862.13;;;18.24
73761;BMP280;69240;43.530;-5.646;2023-07-31T04:23:21;101853.97;;;18.24
73761;BMP280;69240;43.530;-5.646;2023-07-31T04:25:47;101855.91;;;18.18
73761;BMP280;69240;43.530;-5.646;2023-07-31T04:28:14;101861.34;;;18.24
73761;BMP280;69240;43.530;-5.646;2023-07-31T04:30:39;101857.41;;;18.25
73761;BMP280;69240;43.530;-5.646;2023-07-31T04:33:05;101862.59;;;18.23
73761;BMP280;69240;43.530;-5.646;2023-07-31T04:35:30;101861.34;;;18.24
73761;BMP280;69240;43.530;-5.646;2023-07-31T04:37:56;101859.13;;;18.22
73761;BMP280;69240;43.530;-5.646;2023-07-31T04:40:21;101862.84;;;18.25
73761;BMP280;69240;43.530;-5.646;2023-07-31T04:42:47;101868.69;;;18.18
73761;BMP280;69240;43.530;-5.646;2023-07-31T04:45:13;101867.31;;;18.28
73761;BMP280;69240;43.530;-5.646;2023-07-31T04:47:39;101861.13;;;18.27
73761;BMP280;69240;43.530;-5.646;2023-07-31T04:50:05;101866.81;;;18.29
73761;BMP280;69240;43.530;-5.646;2023-07-31T04:52:30;101860.44;;;18.32
73761;BMP280;69240;43.530;-5.646;2023-07-31T04:54:56;101858.97;;;18.31
73761;BMP280;69240;43.530;-5.646;2023-07-31T04:57:21;101858.22;;;18.31
73761;BMP280;69240;43.530;-5.646;2023-07-31T04:59:47;101867.09;;;18.31
73761;BMP280;69240;43.530;-5.646;2023-07-31T05:02:12;101860.16;;;18.30
73761;BMP280;69240;43.530;-5.646;2023-07-31T05:04:41;101866.13;;;18.34
73761;BMP280;69240;43.530;-5.646;2023-07-31T05:07:06;101866.13;;;18.34
73761;BMP280;69240;43.530;-5.646;2023-07-31T05:09:32;101861.69;;;18.31
73761;BMP280;69240;43.530;-5.646;2023-07-31T05:11:58;101866.56;;;18.27
73761;BMP280;69240;43.530;-5.646;2023-07-31T05:14:23;101861.13;;;18.27
73761;BMP280;69240;43.530;-5.646;2023-07-31T05:16:49;101858.16;;;18.25
73761;BMP280;69240;43.530;-5.646;2023-07-31T05:19:14;101856.94;;;18.26
73761;BMP280;69240;43.530;-5.646;2023-07-31T05:21:40;101855.25;;;18.29
73761;BMP280;69240;43.530;-5.646;2023-07-31T05:24:06;101857.75;;;18.32
73761;BMP280;69240;43.530;-5.646;2023-07-31T05:26:31;101857.75;;;18.32
73761;BMP280;69240;43.530;-5.646;2023-07-31T05:28:57;101855.59;;;18.42
73761;BMP280;69240;43.530;-5.646;2023-07-31T05:31:24;101845.75;;;18.44
73761;BMP280;69240;43.530;-5.646;2023-07-31T05:33:50;101847.06;;;18.54
73761;BMP280;69240;43.530;-5.646;2023-07-31T05:36:17;101844.34;;;18.54
73761;BMP280;69240;43.530;-5.646;2023-07-31T05:38:42;101844.16;;;18.63
73761;BMP280;69240;43.530;-5.646;2023-07-31T05:41:12;101847.66;;;18.69
73761;BMP280;69240;43.530;-5.646;2023-07-31T05:43:38;101861.75;;;18.79
73761;BMP280;69240;43.530;-5.646;2023-07-31T05:46:03;101865.91;;;19.16
73761;BMP280;69240;43.530;-5.646;2023-07-31T05:48:29;101878.47;;;20.05
73761;BMP280;69240;43.530;-5.646;2023-07-31T05:50:56;101877.19;;;20.72
73761;BMP280;69240;43.530;-5.646;2023-07-31T05:53:21;101887.50;;;21.01
73761;BMP280;69240;43.530;-5.646;2023-07-31T05:55:47;101881.81;;;20.99
73761;BMP280;69240;43.530;-5.646;2023-07-31T05:58:14;101877.44;;;20.69
73761;BMP280;69240;43.530;-5.646;2023-07-31T06:00:39;101887.63;;;20.46
73761;BMP280;69240;43.530;-5.646;2023-07-31T06:03:06;101881.94;;;20.44
73761;BMP280;69240;43.530;-5.646;2023-07-31T06:05:31;101883.66;;;20.47
73761;BMP280;69240;43.530;-5.646;2023-07-31T06:07:57;101890.34;;;20.46
73761;BMP280;69240;43.530;-5.646;2023-07-31T06:10:22;101885.16;;;20.48
73761;BMP280;69240;43.530;-5.646;2023-07-31T06:12:48;101890.34;;;20.52
73761;BMP280;69240;43.530;-5.646;2023-07-31T06:15:13;101891.31;;;20.54
73761;BMP280;69240;43.530;-5.646;2023-07-31T06:17:39;101896.50;;;20.63
73761;BMP280;69240;43.530;-5.646;2023-07-31T06:20:06;101895.97;;;20.81
73761;BMP280;69240;43.530;-5.646;2023-07-31T06:22:32;101893.47;;;20.94
73761;BMP280;69240;43.530;-5.646;2023-07-31T06:24:57;101905.19;;;21.35
73761;BMP280;69240;43.530;-5.646;2023-07-31T06:27:23;101908.16;;;22.66
73761;BMP280;69240;43.530;-5.646;2023-07-31T06:29:49;101932.72;;;23.64
73761;BMP280;69240;43.530;-5.646;2023-07-31T06:32:14;101938.78;;;24.97
73761;BMP280;69240;43.530;-5.646;2023-07-31T06:34:40;101950.16;;;26.09
73761;BMP280;69240;43.530;-5.646;2023-07-31T06:37:07;101938.50;;;26.87
73761;BMP280;69240;43.530;-5.646;2023-07-31T06:39:32;101940.84;;;27.48
73761;BMP280;69240;43.530;-5.646;2023-07-31T06:41:58;101938.47;;;27.89
73761;BMP280;69240;43.530;-5.646;2023-07-31T06:44:23;101940.75;;;28.45
73761;BMP280;69240;43.530;-5.646;2023-07-31T06:46:49;101953.59;;;28.89
73761;BMP280;69240;43.530;-5.646;2023-07-31T06:49:14;101951.81;;;29.09
73761;BMP280;69240;43.530;-5.646;2023-07-31T06:51:43;101948.69;;;29.37
73761;BMP280;69240;43.530;-5.646;2023-07-31T06:54:09;101959.53;;;29.84
73761;BMP280;69240;43.530;-5.646;2023-07-31T06:56:35;101955.78;;;29.89
73761;BMP280;69240;43.530;-5.646;2023-07-31T06:59:00;101966.63;;;30.11
73761;BMP280;69240;43.530;-5.646;2023-07-31T07:01:26;101958.19;;;30.52
73761;BMP280;69240;43.530;-5.646;2023-07-31T07:03:53;101951.31;;;30.70
73761;BMP280;69240;43.530;-5.646;2023-07-31T07:06:18;101955.31;;;30.77
73761;BMP280;69240;43.530;-5.646;2023-07-31T07:08:44;101920.00;;;29.81
73761;BMP280;69240;43.530;-5.646;2023-07-31T07:14:50;101893.94;;;27.68
73761;BMP280;69240;43.530;-5.646;2023-07-31T07:20:51;101907.50;;;27.59
73761;BMP280;69240;43.530;-5.646;2023-07-31T07:23:17;101905.25;;;27.72
73761;BMP280;69240;43.530;-5.646;2023-07-31T07:25:43;101904.56;;;27.49
73761;BMP280;69240;43.530;-5.646;2023-07-31T07:28:12;101904.94;;;27.38
73761;BMP280;69240;43.530;-5.646;2023-07-31T07:30:38;101909.66;;;27.45
73761;BMP280;69240;43.530;-5.646;2023-07-31T07:33:03;101903.75;;;27.12
73761;BMP280;69240;43.530;-5.646;2023-07-31T07:35:29;101904.19;;;27.23
73761;BMP280;69240;43.530;-5.646;2023-07-31T07:37:54;101901.13;;;26.84
73761;BMP280;69240;43.530;-5.646;2023-07-31T07:40:21;101902.88;;;26.59
73761;BMP280;69240;43.530;-5.646;2023-07-31T07:42:46;101903.81;;;26.26
73761;BMP280;69240;43.530;-5.646;2023-07-31T07:45:12;101903.59;;;25.96
73761;BMP280;69240;43.530;-5.646;2023-07-31T07:47:40;101907.16;;;25.83
73761;BMP280;69240;43.530;-5.646;2023-07-31T07:50:06;101900.00;;;25.80
73761;BMP280;69240;43.530;-5.646;2023-07-31T07:52:32;101902.56;;;25.58
73761;BMP280;69240;43.530;-5.646;2023-07-31T07:54:57;101896.94;;;25.43
73761;BMP280;69240;43.530;-5.646;2023-07-31T07:57:23;101896.50;;;25.39
73761;BMP280;69240;43.530;-5.646;2023-07-31T07:59:48;101895.47;;;25.42
73761;BMP280;69240;43.530;-5.646;2023-07-31T08:02:14;101897.75;;;25.51
73761;BMP280;69240;43.530;-5.646;2023-07-31T08:04:39;101898.94;;;25.63
73761;BMP280;69240;43.530;-5.646;2023-07-31T08:07:05;101893.59;;;25.78
73761;BMP280;69240;43.530;-5.646;2023-07-31T08:09:30;101894.84;;;25.97
73761;BMP280;69240;43.530;-5.646;2023-07-31T08:11:56;101894.84;;;25.97
73761;BMP280;69240;43.530;-5.646;2023-07-31T08:14:27;101896.97;;;25.91
73761;BMP280;69240;43.530;-5.646;2023-07-31T08:16:52;101893.44;;;25.63
73761;BMP280;69240;43.530;-5.646;2023-07-31T08:19:18;101895.13;;;25.66
73761;BMP280;69240;43.530;-5.646;2023-07-31T08:21:43;101875.97;;;25.73
73761;BMP280;69240;43.530;-5.646;2023-07-31T08:24:08;101883.50;;;26.01
73761;BMP280;69240;43.530;-5.646;2023-07-31T08:26:34;101886.59;;;26.33
73761;BMP280;69240;43.530;-5.646;2023-07-31T08:29:00;101885.69;;;26.66
73761;BMP280;69240;43.530;-5.646;2023-07-31T08:31:25;101874.66;;;26.51
73761;BMP280;69240;43.530;-5.646;2023-07-31T08:33:52;101876.09;;;26.52
73761;BMP280;69240;43.530;-5.646;2023-07-31T08:36:17;101873.09;;;26.35
73761;BMP280;69240;43.530;-5.646;2023-07-31T08:38:45;101868.69;;;26.32
73761;BMP280;69240;43.530;-5.646;2023-07-31T08:41:10;101862.13;;;26.35
73761;BMP280;69240;43.530;-5.646;2023-07-31T08:43:37;101873.09;;;26.42
73761;BMP280;69240;43.530;-5.646;2023-07-31T08:46:03;101859.47;;;26.22
73761;BMP280;69240;43.530;-5.646;2023-07-31T08:48:29;101846.03;;;26.11
73761;BMP280;69240;43.530;-5.646;2023-07-31T08:50:54;101841.47;;;26.06
73761;BMP280;69240;43.530;-5.646;2023-07-31T08:53:20;101841.00;;;25.87
73761;BMP280;69240;43.530;-5.646;2023-07-31T08:55:46;101839.78;;;25.75
73761;BMP280;69240;43.530;-5.646;2023-07-31T08:58:13;101838.41;;;25.89
73761;BMP280;69240;43.530;-5.646;2023-07-31T09:00:40;101832.00;;;26.14
73761;BMP280;69240;43.530;-5.646;2023-07-31T09:03:16;101843.00;;;26.65
73761;BMP280;69240;43.530;-5.646;2023-07-31T09:05:46;101835.97;;;26.92
73761;BMP280;69240;43.530;-5.646;2023-07-31T09:08:13;101844.75;;;27.13
73761;BMP280;69240;43.530;-5.646;2023-07-31T09:10:43;101848.63;;;27.25
73761;BMP280;69240;43.530;-5.646;2023-07-31T09:13:11;101847.00;;;27.29
73761;BMP280;69240;43.530;-5.646;2023-07-31T09:15:37;101844.22;;;27.07
73761;BMP280;69240;43.530;-5.646;2023-07-31T09:18:03;101835.72;;;26.75
73761;BMP280;69240;43.530;-5.646;2023-07-31T09:20:30;101845.13;;;27.02
73761;BMP280;69240;43.530;-5.646;2023-07-31T09:23:06;101832.28;;;26.97
73761;BMP280;69240;43.530;-5.646;2023-07-31T09:25:35;101839.81;;;27.04
73761;BMP280;69240;43.530;-5.646;2023-07-31T09:28:03;101840.38;;;27.47
73761;BMP280;69240;43.530;-5.646;2023-07-31T09:30:30;101845.53;;;27.50
73761;BMP280;69240;43.530;-5.646;2023-07-31T09:33:03;101833.41;;;27.53
73761;BMP280;69240;43.530;-5.646;2023-07-31T09:35:33;101835.22;;;27.66
73761;BMP280;69240;43.530;-5.646;2023-07-31T09:38:25;101836.16;;;27.61
73761;BMP280;69240;43.530;-5.646;2023-07-31T09:40:50;101833.06;;;27.49
73761;BMP280;69240;43.530;-5.646;2023-07-31T09:43:20;101839.84;;;27.56
73761;BMP280;69240;43.530;-5.646;2023-07-31T09:45:46;101845.34;;;27.33
73761;BMP280;69240;43.530;-5.646;2023-07-31T09:48:17;101831.38;;;27.54
73761;BMP280;69240;43.530;-5.646;2023-07-31T09:50:47;101834.91;;;27.32
73761;BMP280;69240;43.530;-5.646;2023-07-31T09:53:14;101833.75;;;27.13
73761;BMP280;69240;43.530;-5.646;2023-07-31T09:55:41;101822.00;;;26.90
73761;BMP280;69240;43.530;-5.646;2023-07-31T09:58:09;101819.50;;;26.41
73761;BMP280;69240;43.530;-5.646;2023-07-31T10:00:35;101825.50;;;25.97
73761;BMP280;69240;43.530;-5.646;2023-07-31T10:03:05;101821.25;;;26.24
73761;BMP280;69240;43.530;-5.646;2023-07-31T10:05:35;101827.91;;;25.11
73761;BMP280;69240;43.530;-5.646;2023-07-31T10:08:01;101842.38;;;24.65
73761;BMP280;69240;43.530;-5.646;2023-07-31T10:10:29;101830.59;;;24.57
73761;BMP280;69240;43.530;-5.646;2023-07-31T10:12:56;101831.50;;;24.73
73761;BMP280;69240;43.530;-5.646;2023-07-31T10:15:23;101830.59;;;24.31
73761;BMP280;69240;43.530;-5.646;2023-07-31T10:17:49;101828.81;;;24.08
73761;BMP280;69240;43.530;-5.646;2023-07-31T10:20:16;101836.50;;;23.96
73761;BMP280;69240;43.530;-5.646;2023-07-31T10:22:45;101845.19;;;23.82
73761;BMP280;69240;43.530;-5.646;2023-07-31T10:25:11;101833.59;;;23.76
73761;BMP280;69240;43.530;-5.646;2023-07-31T10:27:38;101831.13;;;23.47
73761;BMP280;69240;43.530;-5.646;2023-07-31T10:30:07;101830.00;;;23.37
73761;BMP280;69240;43.530;-5.646;2023-07-31T10:32:33;101827.63;;;23.77
73761;BMP280;69240;43.530;-5.646;2023-07-31T10:35:01;101829.91;;;23.61
73761;BMP280;69240;43.530;-5.646;2023-07-31T10:37:38;101845.53;;;23.91
73761;BMP280;69240;43.530;-5.646;2023-07-31T10:40:05;101840.59;;;23.59
73761;BMP280;69240;43.530;-5.646;2023-07-31T10:42:36;101831.41;;;23.43
73761;BMP280;69240;43.530;-5.646;2023-07-31T10:45:08;101845.41;;;23.53
73761;BMP280;69240;43.530;-5.646;2023-07-31T10:48:02;101839.84;;;23.89
73761;BMP280;69240;43.530;-5.646;2023-07-31T10:50:28;101835.09;;;23.90
73761;BMP280;69240;43.530;-5.646;2023-07-31T10:52:56;101839.41;;;23.85
73761;BMP280;69240;43.530;-5.646;2023-07-31T10:55:41;101856.00;;;23.43
73761;BMP280;69240;43.530;-5.646;2023-07-31T10:58:10;101841.34;;;23.28
73761;BMP280;69240;43.530;-5.646;2023-07-31T11:00:41;101842.53;;;23.14
73761;BMP280;69240;43.530;-5.646;2023-07-31T11:03:08;101834.09;;;22.93
73761;BMP280;69240;43.530;-5.646;2023-07-31T11:08:33;101850.19;;;23.15
73761;BMP280;69240;43.530;-5.646;2023-07-31T11:13:33;101838.09;;;23.61
73761;BMP280;69240;43.530;-5.646;2023-07-31T11:15:59;101830.53;;;23.67
73761;BMP280;69240;43.530;-5.646;2023-07-31T11:18:28;101833.31;;;23.48
73761;BMP280;69240;43.530;-5.646;2023-07-31T11:20:54;101836.16;;;23.43
73761;BMP280;69240;43.530;-5.646;2023-07-31T11:23:21;101840.31;;;23.12
73761;BMP280;69240;43.530;-5.646;2023-07-31T11:25:46;101827.47;;;22.89
73761;BMP280;69240;43.530;-5.646;2023-07-31T11:28:13;101830.72;;;23.06
73761;BMP280;69240;43.530;-5.646;2023-07-31T11:30:40;101821.84;;;23.18
73761;BMP280;69240;43.530;-5.646;2023-07-31T11:33:08;101816.69;;;23.15
73761;BMP280;69240;43.530;-5.646;2023-07-31T11:35:54;101831.22;;;22.86
73761;BMP280;69240;43.530;-5.646;2023-07-31T11:38:28;101826.31;;;22.60
73761;BMP280;69240;43.530;-5.646;2023-07-31T11:40:55;101814.34;;;22.69
73761;BMP280;69240;43.530;-5.646;2023-07-31T11:43:22;101802.97;;;22.83
73761;BMP280;69240;43.530;-5.646;2023-07-31T11:46:00;101789.84;;;22.82
73761;BMP280;69240;43.530;-5.646;2023-07-31T11:48:29;101774.47;;;22.79
73761;BMP280;69240;43.530;-5.646;2023-07-31T11:51:00;101798.22;;;22.47
73761;BMP280;69240;43.530;-5.646;2023-07-31T11:56:00;101787.97;;;22.53
73761;BMP280;69240;43.530;-5.646;2023-07-31T11:58:29;101803.06;;;22.35
73761;BMP280;69240;43.530;-5.646;2023-07-31T12:00:55;101801.41;;;22.51
73761;BMP280;69240;43.530;-5.646;2023-07-31T12:03:22;101814.59;;;22.47
73761;BMP280;69240;43.530;-5.646;2023-07-31T12:05:48;101795.28;;;22.45
73761;BMP280;69240;43.530;-5.646;2023-07-31T12:08:13;101800.59;;;22.56
73761;BMP280;69240;43.530;-5.646;2023-07-31T12:10:39;101783.03;;;22.51
73761;BMP280;69240;43.530;-5.646;2023-07-31T12:13:10;101797.88;;;22.74
73761;BMP280;69240;43.530;-5.646;2023-07-31T12:15:46;101791.16;;;22.94
73761;BMP280;69240;43.530;-5.646;2023-07-31T12:18:19;101788.19;;;23.10
73761;BMP280;69240;43.530;-5.646;2023-07-31T12:20:47;101787.91;;;23.14
73761;BMP280;69240;43.530;-5.646;2023-07-31T12:23:20;101798.25;;;23.21
73761;BMP280;69240;43.530;-5.646;2023-07-31T12:28:36;101805.19;;;23.22
73761;BMP280;69240;43.530;-5.646;2023-07-31T12:31:02;101800.81;;;23.32
73761;BMP280;69240;43.530;-5.646;2023-07-31T12:33:36;101793.00;;;23.54
73761;BMP280;69240;43.530;-5.646;2023-07-31T12:36:04;101794.44;;;23.42
73761;BMP280;69240;43.530;-5.646;2023-07-31T12:38:30;101787.88;;;23.32
73761;BMP280;69240;43.530;-5.646;2023-07-31T12:40:56;101790.75;;;23.53
73761;BMP280;69240;43.530;-5.646;2023-07-31T12:43:21;101792.44;;;23.56
73761;BMP280;69240;43.530;-5.646;2023-07-31T12:45:47;101802.16;;;23.57
73761;BMP280;69240;43.530;-5.646;2023-07-31T12:48:12;101786.28;;;23.24
73761;BMP280;69240;43.530;-5.646;2023-07-31T12:50:38;101786.69;;;23.28
73761;BMP280;69240;43.530;-5.646;2023-07-31T12:53:04;101783.72;;;23.26
73761;BMP280;69240;43.530;-5.646;2023-07-31T12:55:30;101795.59;;;23.47
73761;BMP280;69240;43.530;-5.646;2023-07-31T12:57:56;101791.28;;;23.20
73761;BMP280;69240;43.530;-5.646;2023-07-31T13:00:22;101789.50;;;23.22
73761;BMP280;69240;43.530;-5.646;2023-07-31T13:02:47;101778.63;;;23.04
73761;BMP280;69240;43.530;-5.646;2023-07-31T13:05:13;101787.75;;;23.25
73761;BMP280;69240;43.530;-5.646;2023-07-31T13:07:40;101781.78;;;23.08
73761;BMP280;69240;43.530;-5.646;2023-07-31T13:10:07;101791.75;;;23.24
73761;BMP280;69240;43.530;-5.646;2023-07-31T13:12:32;101785.97;;;23.09
73761;BMP280;69240;43.530;-5.646;2023-07-31T13:14:58;101784.94;;;23.30
73761;BMP280;69240;43.530;-5.646;2023-07-31T13:17:23;101782.28;;;23.25
73761;BMP280;69240;43.530;-5.646;2023-07-31T13:19:49;101802.66;;;22.87
73761;BMP280;69240;43.530;-5.646;2023-07-31T13:22:14;101805.97;;;23.17
73761;BMP280;69240;43.530;-5.646;2023-07-31T13:24:41;101804.03;;;22.99
73761;BMP280;69240;43.530;-5.646;2023-07-31T13:27:07;101783.22;;;22.96
73761;BMP280;69240;43.530;-5.646;2023-07-31T13:29:32;101790.38;;;22.99
73761;BMP280;69240;43.530;-5.646;2023-07-31T13:31:58;101774.03;;;22.93
73761;BMP280;69240;43.530;-5.646;2023-07-31T13:34:23;101774.91;;;23.20
73761;BMP280;69240;43.530;-5.646;2023-07-31T13:36:49;101784.44;;;22.95
73761;BMP280;69240;43.530;-5.646;2023-07-31T13:39:15;101780.09;;;23.05
73761;BMP280;69240;43.530;-5.646;2023-07-31T13:41:40;101775.19;;;23.35
73761;BMP280;69240;43.530;-5.646;2023-07-31T13:44:06;101768.84;;;23.27
73761;BMP280;69240;43.530;-5.646;2023-07-31T13:46:32;101774.47;;;23.16
73761;BMP280;69240;43.530;-5.646;2023-07-31T13:48:58;101770.47;;;23.17
73761;BMP280;69240;43.530;-5.646;2023-07-31T13:51:25;101766.19;;;23.21
73761;BMP280;69240;43.530;-5.646;2023-07-31T13:53:51;101764.75;;;23.02
73761;BMP280;69240;43.530;-5.646;2023-07-31T13:56:16;101763.78;;;23.31
73761;BMP280;69240;43.530;-5.646;2023-07-31T13:58:42;101772.69;;;23.50
73761;BMP280;69240;43.530;-5.646;2023-07-31T14:01:08;101767.25;;;23.18
73761;BMP280;69240;43.530;-5.646;2023-07-31T14:03:34;101769.09;;;23.10
73761;BMP280;69240;43.530;-5.646;2023-07-31T14:05:59;101770.38;;;22.91